Time,TemperatureF,DewpointF,PressureIn,WindDirection,WindDirectionDegrees,WindSpeedMPH,WindSpeedGustMPH,Humidity,HourlyPrecipIn,Conditions,Clouds,dailyrainin,SoftwareType,DateUTC
2013-01-23 00:05:00,27.8,13.3,30.15,West,281,0.0,0.0,54,0.00,,,0.00,Wunderground v.1.15,2013-01-23 07:05:00,
2013-01-23 00:15:00,27.3,13.2,30.15,West,281,0.0,0.0,55,0.00,,,0.00,Wunderground v.1.15,2013-01-23 07:15:00,
2013-01-23 00:20:00,27.2,14.4,30.16,West,281,0.0,0.0,58,0.00,,,0.00,Wunderground v.1.15,2013-01-23 07:20:00,
2013-01-23 00:25:00,27.0,14.6,30.16,West,281,0.0,0.0,59,0.00,,,0.00,Wunderground v.1.15,2013-01-23 07:25:00,
2013-01-23 00:30:00,26.7,14.3,30.16,West,281,0.0,0.0,59,0.00,,,0.00,Wunderground v.1.15,2013-01-23 07:30:00,
2013-01-23 00:40:00,26.6,12.6,30.15,West,281,0.0,0.0,55,0.00,,,0.00,Wunderground v.1.15,2013-01-23 07:40:00,
2013-01-23 00:45:00,26.7,11.8,30.15,West,281,0.0,0.0,53,0.00,,,0.00,Wunderground v.1.15,2013-01-23 07:45:00,
2013-01-23 00:50:00,26.9,11.6,30.15,West,281,0.0,0.0,52,0.00,,,0.00,Wunderground v.1.15,2013-01-23 07:50:00,
2013-01-23 00:55:00,26.9,12.0,30.15,West,281,0.0,0.0,53,0.00,,,0.00,Wunderground v.1.15,2013-01-23 07:55:00,
2013-01-23 01:00:00,27.0,11.7,30.15,West,281,0.0,0.0,52,0.00,,,0.00,Wunderground v.1.15,2013-01-23 08:00:00,
2013-01-23 01:05:00,27.0,11.7,30.15,West,281,0.0,0.0,52,0.00,,,0.00,Wunderground v.1.15,2013-01-23 08:05:00,
2013-01-23 01:15:00,27.3,11.5,30.15,West,281,0.0,0.0,51,0.00,,,0.00,Wunderground v.1.15,2013-01-23 08:15:00,
2013-01-23 01:20:00,27.6,10.9,30.14,West,281,0.0,0.0,49,0.00,,,0.00,Wunderground v.1.15,2013-01-23 08:20:00,
2013-01-23 01:25:00,27.8,12.0,30.14,West,281,0.0,0.0,51,0.00,,,0.00,Wunderground v.1.15,2013-01-23 08:25:00,
2013-01-23 01:30:00,27.9,13.8,30.14,West,281,0.0,0.0,55,0.00,,,0.00,Wunderground v.1.15,2013-01-23 08:30:00,
2013-01-23 01:35:00,27.8,12.9,30.15,West,281,0.0,0.0,53,0.00,,,0.00,Wunderground v.1.15,2013-01-23 08:35:00,
2013-01-23 01:45:00,27.3,12.4,30.15,West,281,0.0,0.0,53,0.00,,,0.00,Wunderground v.1.15,2013-01-23 08:45:00,
2013-01-23 01:50:00,27.2,13.1,30.15,West,281,0.0,0.0,55,0.00,,,0.00,Wunderground v.1.15,2013-01-23 08:50:00,
2013-01-23 01:55:00,26.9,12.5,30.15,West,281,0.0,0.0,54,0.00,,,0.00,Wunderground v.1.15,2013-01-23 08:55:00,
2013-01-23 02:00:00,26.7,12.7,30.15,West,281,0.0,0.0,55,0.00,,,0.00,Wunderground v.1.15,2013-01-23 09:00:00,
2013-01-23 02:05:00,26.6,12.6,30.16,West,281,0.0,1.0,55,0.00,,,0.00,Wunderground v.1.15,2013-01-23 09:05:00,
2013-01-23 02:15:00,26.4,12.4,30.16,West,281,0.0,1.0,55,0.00,,,0.00,Wunderground v.1.15,2013-01-23 09:15:00,
2013-01-23 02:25:00,26.4,12.4,30.16,West,281,0.0,1.0,55,0.00,,,0.00,Wunderground v.1.15,2013-01-23 09:25:00,
2013-01-23 02:30:00,26.6,12.6,30.16,West,281,0.0,1.0,55,0.00,,,0.00,Wunderground v.1.15,2013-01-23 09:30:00,
2013-01-23 02:35:00,26.7,12.7,30.16,West,281,1.0,1.0,55,0.00,,,0.00,Wunderground v.1.15,2013-01-23 09:35:00,
2013-01-23 02:45:00,26.7,13.1,30.16,West,281,1.0,2.0,56,0.00,,,0.00,Wunderground v.1.15,2013-01-23 09:45:00,
2013-01-23 02:55:00,26.6,12.6,30.16,West,281,0.0,1.0,55,0.00,,,0.00,Wunderground v.1.15,2013-01-23 09:55:00,
2013-01-23 03:00:00,26.7,11.8,30.16,West,281,0.0,1.0,53,0.00,,,0.00,Wunderground v.1.15,2013-01-23 10:00:00,
2013-01-23 03:05:00,26.9,12.5,30.16,West,281,0.0,1.0,54,0.00,,,0.00,Wunderground v.1.15,2013-01-23 10:05:00,
2013-01-23 03:15:00,27.5,12.6,30.16,West,281,0.0,1.0,53,0.00,,,0.00,Wunderground v.1.15,2013-01-23 10:15:00,
2013-01-23 03:20:00,27.6,13.1,30.15,West,281,0.0,1.0,54,0.00,,,0.00,Wunderground v.1.15,2013-01-23 10:20:00,
2013-01-23 03:25:00,27.6,12.7,30.15,West,281,0.0,1.0,53,0.00,,,0.00,Wunderground v.1.15,2013-01-23 10:25:00,
2013-01-23 03:30:00,27.6,12.7,30.15,West,281,0.0,1.0,53,0.00,,,0.00,Wunderground v.1.15,2013-01-23 10:30:00,
2013-01-23 03:35:00,27.6,12.2,30.15,West,281,0.0,1.0,52,0.00,,,0.00,Wunderground v.1.15,2013-01-23 10:35:00,
2013-01-23 03:40:00,27.5,12.2,30.15,West,281,0.0,1.0,52,0.00,,,0.00,Wunderground v.1.15,2013-01-23 10:40:00,
2013-01-23 03:50:00,27.3,12.8,30.16,West,281,0.0,1.0,54,0.00,,,0.00,Wunderground v.1.15,2013-01-23 10:50:00,
2013-01-23 03:55:00,27.2,11.4,30.16,West,281,0.0,1.0,51,0.00,,,0.00,Wunderground v.1.15,2013-01-23 10:55:00,
2013-01-23 04:05:00,27.3,11.5,30.16,West,281,0.0,1.0,51,0.00,,,0.00,Wunderground v.1.15,2013-01-23 11:05:00,
2013-01-23 04:15:00,27.6,10.9,30.16,West,281,0.0,0.0,49,0.00,,,0.00,Wunderground v.1.15,2013-01-23 11:15:00,
2013-01-23 04:20:00,27.9,11.2,30.16,West,281,0.0,0.0,49,0.00,,,0.00,Wunderground v.1.15,2013-01-23 11:20:00,
2013-01-23 04:30:00,28.2,11.0,30.16,West,281,0.0,0.0,48,0.00,,,0.00,Wunderground v.1.15,2013-01-23 11:30:00,
2013-01-23 04:35:00,28.4,11.6,30.16,West,281,0.0,0.0,49,0.00,,,0.00,Wunderground v.1.15,2013-01-23 11:35:00,
2013-01-23 04:40:00,28.2,12.4,30.16,West,281,0.0,0.0,51,0.00,,,0.00,Wunderground v.1.15,2013-01-23 11:40:00,
2013-01-23 04:45:00,28.1,12.3,30.16,West,281,0.0,0.0,51,0.00,,,0.00,Wunderground v.1.15,2013-01-23 11:45:00,
2013-01-23 04:55:00,27.8,12.0,30.17,West,281,0.0,0.0,51,0.00,,,0.00,Wunderground v.1.15,2013-01-23 11:55:00,
2013-01-23 05:00:00,27.6,12.2,30.17,West,281,0.0,0.0,52,0.00,,,0.00,Wunderground v.1.15,2013-01-23 12:00:00,
2013-01-23 05:05:00,27.5,12.2,30.17,West,281,0.0,0.0,52,0.00,,,0.00,Wunderground v.1.15,2013-01-23 12:05:00,
2013-01-23 05:15:00,27.5,12.2,30.17,West,281,0.0,0.0,52,0.00,,,0.00,Wunderground v.1.15,2013-01-23 12:15:00,
2013-01-23 05:25:00,27.8,11.5,30.17,West,281,0.0,2.0,50,0.00,,,0.00,Wunderground v.1.15,2013-01-23 12:25:00,
2013-01-23 05:35:00,28.2,11.0,30.17,West,281,0.0,0.0,48,0.00,,,0.00,Wunderground v.1.15,2013-01-23 12:35:00,
2013-01-23 05:40:00,28.4,11.6,30.17,West,281,0.0,0.0,49,0.00,,,0.00,Wunderground v.1.15,2013-01-23 12:40:00,
2013-01-23 05:45:00,28.4,11.6,30.17,West,281,0.0,0.0,49,0.00,,,0.00,Wunderground v.1.15,2013-01-23 12:45:00,
2013-01-23 05:55:00,28.4,11.6,30.16,West,281,0.0,0.0,49,0.00,,,0.00,Wunderground v.1.15,2013-01-23 12:55:00,
2013-01-23 06:00:00,28.2,11.9,30.16,West,281,0.0,0.0,50,0.00,,,0.00,Wunderground v.1.15,2013-01-23 13:00:00,
2013-01-23 06:05:00,28.1,12.3,30.16,West,281,0.0,0.0,51,0.00,,,0.00,Wunderground v.1.15,2013-01-23 13:05:00,
2013-01-23 06:15:00,27.8,12.9,30.16,West,281,0.0,0.0,53,0.00,,,0.00,Wunderground v.1.15,2013-01-23 13:15:00,
2013-01-23 06:20:00,27.6,13.5,30.16,West,281,0.0,0.0,55,0.00,,,0.00,Wunderground v.1.15,2013-01-23 13:20:00,
2013-01-23 06:25:00,27.3,13.2,30.16,West,281,0.0,0.0,55,0.00,,,0.00,Wunderground v.1.15,2013-01-23 13:25:00,
2013-01-23 06:35:00,27.0,13.8,30.17,West,281,0.0,0.0,57,0.00,,,0.00,Wunderground v.1.15,2013-01-23 13:35:00,
2013-01-23 06:40:00,26.9,13.7,30.17,West,281,0.0,0.0,57,0.00,,,0.00,Wunderground v.1.15,2013-01-23 13:40:00,
2013-01-23 06:45:00,26.6,13.4,30.17,West,281,0.0,0.0,57,0.00,,,0.00,Wunderground v.1.15,2013-01-23 13:45:00,
2013-01-23 06:55:00,26.6,12.6,30.17,West,281,0.0,0.0,55,0.00,,,0.00,Wunderground v.1.15,2013-01-23 13:55:00,
2013-01-23 07:00:00,26.4,14.0,30.17,West,281,0.0,0.0,59,0.00,,,0.00,Wunderground v.1.15,2013-01-23 14:00:00,
2013-01-23 07:05:00,26.3,14.3,30.18,West,281,0.0,0.0,60,0.00,,,0.00,Wunderground v.1.15,2013-01-23 14:05:00,
2013-01-23 07:15:00,25.7,14.8,30.18,West,281,0.0,0.0,63,0.00,,,0.00,Wunderground v.1.15,2013-01-23 14:15:00,
2013-01-23 07:20:00,25.4,14.5,30.17,West,281,0.0,0.0,63,0.00,,,0.00,Wunderground v.1.15,2013-01-23 14:20:00,
2013-01-23 07:25:00,25.3,14.5,30.17,West,281,0.0,0.0,63,0.00,,,0.00,Wunderground v.1.15,2013-01-23 14:25:00,
2013-01-23 07:30:00,25.1,14.3,30.17,West,281,0.0,0.0,63,0.00,,,0.00,Wunderground v.1.15,2013-01-23 14:30:00,
2013-01-23 07:35:00,25.0,13.8,30.17,West,281,0.0,0.0,62,0.00,,,0.00,Wunderground v.1.15,2013-01-23 14:35:00,
2013-01-23 07:45:00,25.1,13.2,30.17,West,281,0.0,0.0,60,0.00,,,0.00,Wunderground v.1.15,2013-01-23 14:45:00,
2013-01-23 07:50:00,25.3,12.6,30.18,West,281,0.0,0.0,58,0.00,,,0.00,Wunderground v.1.15,2013-01-23 14:50:00,
2013-01-23 07:55:00,25.4,12.3,30.18,West,281,0.0,0.0,57,0.00,,,0.00,Wunderground v.1.15,2013-01-23 14:55:00,
2013-01-23 08:00:00,25.4,11.9,30.18,West,281,0.0,0.0,56,0.00,,,0.00,Wunderground v.1.15,2013-01-23 15:00:00,
2013-01-23 08:05:00,25.6,11.7,30.17,West,281,0.0,0.0,55,0.00,,,0.00,Wunderground v.1.15,2013-01-23 15:05:00,
2013-01-23 08:15:00,25.8,11.4,30.17,West,281,0.0,0.0,54,0.00,,,0.00,Wunderground v.1.15,2013-01-23 15:15:00,
2013-01-23 08:20:00,26.0,12.4,30.17,West,281,0.0,0.0,56,0.00,,,0.00,Wunderground v.1.15,2013-01-23 15:20:00,
2013-01-23 08:25:00,26.1,12.5,30.17,West,281,0.0,0.0,56,0.00,,,0.00,Wunderground v.1.15,2013-01-23 15:25:00,
2013-01-23 08:30:00,26.1,12.1,30.17,West,281,0.0,0.0,55,0.00,,,0.00,Wunderground v.1.15,2013-01-23 15:30:00,
2013-01-23 08:35:00,26.1,12.5,30.17,West,281,0.0,0.0,56,0.00,,,0.00,Wunderground v.1.15,2013-01-23 15:35:00,
2013-01-23 08:40:00,26.3,12.7,30.17,West,281,0.0,0.0,56,0.00,,,0.00,Wunderground v.1.15,2013-01-23 15:40:00,
2013-01-23 08:50:00,26.9,12.0,30.15,West,281,0.0,0.0,53,0.00,,,0.00,Wunderground v.1.15,2013-01-23 15:50:00,
2013-01-23 08:55:00,27.2,11.4,30.15,West,281,0.0,0.0,51,0.00,,,0.00,Wunderground v.1.15,2013-01-23 15:55:00,
2013-01-23 09:00:00,27.3,12.4,30.15,West,281,0.0,0.0,53,0.00,,,0.00,Wunderground v.1.15,2013-01-23 16:00:00,
2013-01-23 09:05:00,27.5,12.6,30.16,West,281,0.0,0.0,53,0.00,,,0.00,Wunderground v.1.15,2013-01-23 16:05:00,
2013-01-23 09:15:00,27.5,13.4,30.16,West,281,0.0,0.0,55,0.00,,,0.00,Wunderground v.1.15,2013-01-23 16:15:00,
2013-01-23 09:25:00,27.2,14.4,30.15,West,281,0.0,0.0,58,0.00,,,0.00,Wunderground v.1.15,2013-01-23 16:25:00,
2013-01-23 09:30:00,27.0,13.8,30.15,West,281,0.0,0.0,57,0.00,,,0.00,Wunderground v.1.15,2013-01-23 16:30:00,
2013-01-23 09:35:00,27.0,14.2,30.15,West,281,0.0,0.0,58,0.00,,,0.00,Wunderground v.1.15,2013-01-23 16:35:00,
2013-01-23 09:40:00,27.2,14.0,30.15,West,281,0.0,0.0,57,0.00,,,0.00,Wunderground v.1.15,2013-01-23 16:40:00,
2013-01-23 09:45:00,27.3,14.1,30.15,West,281,0.0,0.0,57,0.00,,,0.00,Wunderground v.1.15,2013-01-23 16:45:00,
2013-01-23 09:55:00,27.6,14.3,30.15,West,281,0.0,0.0,57,0.00,,,0.00,Wunderground v.1.15,2013-01-23 16:55:00,
2013-01-23 10:00:00,27.6,14.7,30.15,West,281,0.0,0.0,58,0.00,,,0.00,Wunderground v.1.15,2013-01-23 17:00:00,
2013-01-23 10:05:00,27.8,14.9,30.15,West,281,0.0,0.0,58,0.00,,,0.00,Wunderground v.1.15,2013-01-23 17:05:00,
2013-01-23 10:15:00,28.1,13.6,30.15,West,281,0.0,0.0,54,0.00,,,0.00,Wunderground v.1.15,2013-01-23 17:15:00,
2013-01-23 10:25:00,28.8,14.6,30.15,West,281,0.0,0.0,55,0.00,,,0.00,Wunderground v.1.15,2013-01-23 17:25:00,
2013-01-23 10:30:00,29.3,15.5,30.15,West,281,0.0,0.0,56,0.00,,,0.00,Wunderground v.1.15,2013-01-23 17:30:00,
2013-01-23 10:35:00,29.7,15.5,30.14,West,281,0.0,0.0,55,0.00,,,0.00,Wunderground v.1.15,2013-01-23 17:35:00,
2013-01-23 10:40:00,30.1,15.4,30.14,West,281,0.0,0.0,54,0.00,,,0.00,Wunderground v.1.15,2013-01-23 17:40:00,
2013-01-23 10:45:00,30.6,17.6,30.14,West,281,0.0,0.0,58,0.00,,,0.00,Wunderground v.1.15,2013-01-23 17:45:00,
2013-01-23 10:50:00,31.0,17.9,30.13,West,281,0.0,0.0,58,0.00,,,0.00,Wunderground v.1.15,2013-01-23 17:50:00,
2013-01-23 11:00:00,31.3,17.4,30.13,West,281,0.0,0.0,56,0.00,,,0.00,Wunderground v.1.15,2013-01-23 18:00:00,
2013-01-23 11:05:00,31.3,17.8,30.14,West,281,0.0,0.0,57,0.00,,,0.00,Wunderground v.1.15,2013-01-23 18:05:00,
2013-01-23 11:15:00,31.5,17.6,30.14,West,281,0.0,0.0,56,0.00,,,0.00,Wunderground v.1.15,2013-01-23 18:15:00,
2013-01-23 11:25:00,31.6,17.3,30.13,West,281,0.0,0.0,55,0.00,,,0.00,Wunderground v.1.15,2013-01-23 18:25:00,
2013-01-23 11:35:00,31.8,17.9,30.12,West,281,0.0,0.0,56,0.00,,,0.00,Wunderground v.1.15,2013-01-23 18:35:00,
2013-01-23 11:40:00,31.9,17.5,30.12,West,281,0.0,0.0,55,0.00,,,0.00,Wunderground v.1.15,2013-01-23 18:40:00,
2013-01-23 11:50:00,32.4,18.4,30.12,West,281,0.0,0.0,56,0.00,,,0.00,Wunderground v.1.15,2013-01-23 18:50:00,
2013-01-23 11:55:00,32.5,18.1,30.12,West,281,0.0,0.0,55,0.00,,,0.00,Wunderground v.1.15,2013-01-23 18:55:00,
2013-01-23 12:05:00,32.8,18.0,30.10,West,281,0.0,1.0,54,0.00,,,0.00,Wunderground v.1.15,2013-01-23 19:05:00,
2013-01-23 12:15:00,32.9,18.5,30.10,West,281,0.0,1.0,55,0.00,,,0.00,Wunderground v.1.15,2013-01-23 19:15:00,
2013-01-23 12:25:00,32.9,18.5,30.09,West,281,0.0,1.0,55,0.00,,,0.00,Wunderground v.1.15,2013-01-23 19:25:00,
2013-01-23 12:30:00,33.1,18.7,30.09,West,281,0.0,1.0,55,0.00,,,0.00,Wunderground v.1.15,2013-01-23 19:30:00,
2013-01-23 12:40:00,33.2,18.3,30.09,West,281,0.0,1.0,54,0.00,,,0.00,Wunderground v.1.15,2013-01-23 19:40:00,
2013-01-23 12:50:00,33.7,18.8,30.07,West,281,0.0,1.0,54,0.00,,,0.00,Wunderground v.1.15,2013-01-23 19:50:00,
2013-01-23 12:55:00,33.8,18.5,30.07,West,281,0.0,1.0,53,0.00,,,0.00,Wunderground v.1.15,2013-01-23 19:55:00,
2013-01-23 13:00:00,34.0,18.2,30.07,West,281,0.0,1.0,52,0.00,,,0.00,Wunderground v.1.15,2013-01-23 20:00:00,
2013-01-23 13:05:00,34.0,17.7,30.06,West,281,0.0,1.0,51,0.00,,,0.00,Wunderground v.1.15,2013-01-23 20:05:00,
2013-01-23 13:15:00,33.8,18.0,30.06,West,281,0.0,1.0,52,0.00,,,0.00,Wunderground v.1.15,2013-01-23 20:15:00,
2013-01-23 13:20:00,34.1,18.7,30.06,West,281,0.0,1.0,53,0.00,,,0.00,Wunderground v.1.15,2013-01-23 20:20:00,
2013-01-23 13:25:00,34.3,18.5,30.06,West,281,0.0,1.0,52,0.00,,,0.00,Wunderground v.1.15,2013-01-23 20:25:00,
2013-01-23 13:30:00,34.3,17.6,30.06,West,281,0.0,1.0,50,0.00,,,0.00,Wunderground v.1.15,2013-01-23 20:30:00,
2013-01-23 13:35:00,34.3,18.0,30.06,West,281,0.0,1.0,51,0.00,,,0.00,Wunderground v.1.15,2013-01-23 20:35:00,
2013-01-23 13:45:00,34.4,18.1,30.06,West,281,0.0,1.0,51,0.00,,,0.00,Wunderground v.1.15,2013-01-23 20:45:00,
2013-01-23 13:55:00,34.6,17.8,30.05,West,281,0.0,1.0,50,0.00,,,0.00,Wunderground v.1.15,2013-01-23 20:55:00,
2013-01-23 14:00:00,34.7,17.5,30.05,West,281,0.0,1.0,49,0.00,,,0.00,Wunderground v.1.15,2013-01-23 21:00:00,
2013-01-23 14:05:00,34.9,17.7,30.03,West,281,0.0,1.0,49,0.00,,,0.00,Wunderground v.1.15,2013-01-23 21:05:00,
2013-01-23 14:15:00,34.7,17.0,30.03,West,281,0.0,1.0,48,0.00,,,0.00,Wunderground v.1.15,2013-01-23 21:15:00,
2013-01-23 14:20:00,34.6,17.8,30.03,West,281,0.0,1.0,50,0.00,,,0.00,Wunderground v.1.15,2013-01-23 21:20:00,
2013-01-23 14:25:00,34.6,17.4,30.03,West,281,0.0,1.0,49,0.00,,,0.00,Wunderground v.1.15,2013-01-23 21:25:00,
2013-01-23 14:35:00,34.9,18.1,30.02,West,281,0.0,1.0,50,0.00,,,0.00,Wunderground v.1.15,2013-01-23 21:35:00,
2013-01-23 14:40:00,34.9,17.7,30.02,West,281,0.0,1.0,49,0.00,,,0.00,Wunderground v.1.15,2013-01-23 21:40:00,
2013-01-23 14:50:00,34.7,16.5,30.02,West,281,0.0,1.0,47,0.00,,,0.00,Wunderground v.1.15,2013-01-23 21:50:00,
2013-01-23 14:55:00,34.6,16.4,30.02,West,281,0.0,1.0,47,0.00,,,0.00,Wunderground v.1.15,2013-01-23 21:55:00,
2013-01-23 15:00:00,34.4,17.2,30.02,West,281,0.0,1.0,49,0.00,,,0.00,Wunderground v.1.15,2013-01-23 22:00:00,
2013-01-23 15:05:00,34.4,17.2,30.02,West,281,0.0,1.0,49,0.00,,,0.00,Wunderground v.1.15,2013-01-23 22:05:00,
2013-01-23 15:15:00,34.3,17.1,30.02,West,281,0.0,0.0,49,0.00,,,0.00,Wunderground v.1.15,2013-01-23 22:15:00,
2013-01-23 15:20:00,34.3,17.6,30.02,West,281,0.0,0.0,50,0.00,,,0.00,Wunderground v.1.15,2013-01-23 22:20:00,
2013-01-23 15:25:00,34.3,16.6,30.02,West,281,0.0,0.0,48,0.00,,,0.00,Wunderground v.1.15,2013-01-23 22:25:00,
2013-01-23 15:30:00,34.3,17.1,30.02,West,281,0.0,0.0,49,0.00,,,0.00,Wunderground v.1.15,2013-01-23 22:30:00,
2013-01-23 15:35:00,34.4,17.2,30.01,West,281,0.0,0.0,49,0.00,,,0.00,Wunderground v.1.15,2013-01-23 22:35:00,
2013-01-23 15:40:00,34.7,17.5,30.01,West,281,0.0,0.0,49,0.00,,,0.00,Wunderground v.1.15,2013-01-23 22:40:00,
2013-01-23 15:45:00,35.0,16.8,30.01,West,281,0.0,1.0,47,0.00,,,0.00,Wunderground v.1.15,2013-01-23 22:45:00,
2013-01-23 15:55:00,35.3,16.6,30.01,West,281,0.0,0.0,46,0.00,,,0.00,Wunderground v.1.15,2013-01-23 22:55:00,
2013-01-23 16:00:00,35.3,17.1,30.01,West,281,0.0,0.0,47,0.00,,,0.00,Wunderground v.1.15,2013-01-23 23:00:00,
2013-01-23 16:05:00,35.2,17.0,30.01,West,281,0.0,0.0,47,0.00,,,0.00,Wunderground v.1.15,2013-01-23 23:05:00,
2013-01-23 16:15:00,35.0,16.8,30.01,West,281,0.0,0.0,47,0.00,,,0.00,Wunderground v.1.15,2013-01-23 23:15:00,
2013-01-23 16:25:00,34.7,16.5,30.01,West,281,0.0,0.0,47,0.00,,,0.00,Wunderground v.1.15,2013-01-23 23:25:00,
2013-01-23 16:30:00,34.6,17.4,30.01,West,281,0.0,0.0,49,0.00,,,0.00,Wunderground v.1.15,2013-01-23 23:30:00,
2013-01-23 16:35:00,34.3,16.6,30.00,West,281,0.0,0.0,48,0.00,,,0.00,Wunderground v.1.15,2013-01-23 23:35:00,
2013-01-23 16:40:00,33.7,16.1,30.00,West,281,0.0,0.0,48,0.00,,,0.00,Wunderground v.1.15,2013-01-23 23:40:00,
2013-01-23 16:45:00,33.5,16.4,30.00,West,281,0.0,0.0,49,0.00,,,0.00,Wunderground v.1.15,2013-01-23 23:45:00,
2013-01-23 16:55:00,33.4,15.3,29.99,West,281,0.0,0.0,47,0.00,,,0.00,Wunderground v.1.15,2013-01-23 23:55:00,
2013-01-23 17:00:00,33.4,17.2,29.99,West,281,0.0,2.0,51,0.00,,,0.00,Wunderground v.1.15,2013-01-24 00:00:00,
2013-01-23 17:05:00,33.1,17.4,30.00,West,281,0.0,2.0,52,0.00,,,0.00,Wunderground v.1.15,2013-01-24 00:05:00,
2013-01-23 17:15:00,32.7,17.0,30.00,West,281,0.0,1.0,52,0.00,,,0.00,Wunderground v.1.15,2013-01-24 00:15:00,
2013-01-23 17:25:00,32.4,17.6,30.00,West,281,0.0,1.0,54,0.00,,,0.00,Wunderground v.1.15,2013-01-24 00:25:00,
2013-01-23 17:30:00,32.2,17.0,30.00,West,281,0.0,1.0,53,0.00,,,0.00,Wunderground v.1.15,2013-01-24 00:30:00,
2013-01-23 17:35:00,32.1,17.3,29.99,West,281,0.0,1.0,54,0.00,,,0.00,Wunderground v.1.15,2013-01-24 00:35:00,
2013-01-23 17:40:00,31.9,17.5,29.99,West,281,0.0,1.0,55,0.00,,,0.00,Wunderground v.1.15,2013-01-24 00:40:00,
2013-01-23 17:45:00,31.6,17.7,29.99,West,281,0.0,1.0,56,0.00,,,0.00,Wunderground v.1.15,2013-01-24 00:45:00,
2013-01-23 17:55:00,31.3,17.0,30.00,West,281,0.0,1.0,55,0.00,,,0.00,Wunderground v.1.15,2013-01-24 00:55:00,
2013-01-23 18:00:00,31.3,16.6,30.00,West,281,0.0,1.0,54,0.00,,,0.00,Wunderground v.1.15,2013-01-24 01:00:00,
2013-01-23 18:05:00,31.3,16.6,29.99,West,281,0.0,1.0,54,0.00,,,0.00,Wunderground v.1.15,2013-01-24 01:05:00,
2013-01-23 18:15:00,31.5,16.3,29.99,West,281,0.0,0.0,53,0.00,,,0.00,Wunderground v.1.15,2013-01-24 01:15:00,
2013-01-23 18:20:00,31.5,16.7,29.99,West,281,0.0,0.0,54,0.00,,,0.00,Wunderground v.1.15,2013-01-24 01:20:00,
2013-01-23 18:30:00,31.6,16.0,29.99,West,281,0.0,0.0,52,0.00,,,0.00,Wunderground v.1.15,2013-01-24 01:30:00,
2013-01-23 18:40:00,31.8,16.2,29.99,West,281,0.0,0.0,52,0.00,,,0.00,Wunderground v.1.15,2013-01-24 01:40:00,
2013-01-23 18:45:00,31.8,15.7,29.99,West,281,0.0,0.0,51,0.00,,,0.00,Wunderground v.1.15,2013-01-24 01:45:00,
2013-01-23 18:50:00,31.9,15.8,30.00,West,281,0.0,0.0,51,0.00,,,0.00,Wunderground v.1.15,2013-01-24 01:50:00,
2013-01-23 18:55:00,31.9,15.8,30.00,West,281,1.0,1.0,51,0.00,,,0.00,Wunderground v.1.15,2013-01-24 01:55:00,
2013-01-23 19:00:00,31.9,16.2,30.00,West,281,0.0,0.0,52,0.00,,,0.00,Wunderground v.1.15,2013-01-24 02:00:00,
2013-01-23 19:05:00,31.9,15.8,30.00,West,281,0.0,0.0,51,0.00,,,0.00,Wunderground v.1.15,2013-01-24 02:05:00,
2013-01-23 19:15:00,31.8,15.7,30.00,West,281,0.0,0.0,51,0.00,,,0.00,Wunderground v.1.15,2013-01-24 02:15:00,
2013-01-23 19:20:00,31.8,15.7,30.00,West,281,0.0,1.0,51,0.00,,,0.00,Wunderground v.1.15,2013-01-24 02:20:00,
2013-01-23 19:25:00,31.8,15.7,30.00,West,281,0.0,1.0,51,0.00,,,0.00,Wunderground v.1.15,2013-01-24 02:25:00,
2013-01-23 19:30:00,31.8,15.7,30.00,West,281,0.0,0.0,51,0.00,,,0.00,Wunderground v.1.15,2013-01-24 02:30:00,
2013-01-23 19:40:00,31.9,15.8,30.00,West,281,0.0,0.0,51,0.00,,,0.00,Wunderground v.1.15,2013-01-24 02:40:00,
2013-01-23 19:45:00,31.8,15.7,30.00,West,281,0.0,0.0,51,0.00,,,0.00,Wunderground v.1.15,2013-01-24 02:45:00,
2013-01-23 19:50:00,31.9,15.3,29.98,West,281,0.0,1.0,50,0.00,,,0.00,Wunderground v.1.15,2013-01-24 02:50:00,
2013-01-23 19:55:00,31.9,15.3,29.98,West,281,0.0,2.0,50,0.00,,,0.00,Wunderground v.1.15,2013-01-24 02:55:00,
2013-01-23 20:00:00,31.9,15.8,29.98,West,281,0.0,0.0,51,0.00,,,0.00,Wunderground v.1.15,2013-01-24 03:00:00,
2013-01-23 20:05:00,31.9,15.3,29.98,West,281,0.0,2.0,50,0.00,,,0.00,Wunderground v.1.15,2013-01-24 03:05:00,
2013-01-23 20:15:00,32.1,16.0,29.98,West,281,0.0,2.0,51,0.00,,,0.00,Wunderground v.1.15,2013-01-24 03:15:00,
2013-01-23 20:20:00,32.1,16.0,29.97,West,281,0.0,2.0,51,0.00,,,0.00,Wunderground v.1.15,2013-01-24 03:20:00,
2013-01-23 20:25:00,32.1,16.0,29.97,West,281,0.0,2.0,51,0.00,,,0.00,Wunderground v.1.15,2013-01-24 03:25:00,
2013-01-23 20:30:00,32.1,16.0,29.97,West,281,0.0,2.0,51,0.00,,,0.00,Wunderground v.1.15,2013-01-24 03:30:00,
2013-01-23 20:40:00,31.8,17.0,29.97,West,281,0.0,2.0,54,0.00,,,0.00,Wunderground v.1.15,2013-01-24 03:40:00,
2013-01-23 20:50:00,31.3,16.1,29.97,West,281,0.0,2.0,53,0.00,,,0.00,Wunderground v.1.15,2013-01-24 03:50:00,
2013-01-23 21:00:00,31.3,16.6,29.97,West,281,0.0,2.0,54,0.00,,,0.00,Wunderground v.1.15,2013-01-24 04:00:00,
2013-01-23 21:05:00,31.3,15.7,29.97,West,281,0.0,2.0,52,0.00,,,0.00,Wunderground v.1.15,2013-01-24 04:05:00,
2013-01-23 21:15:00,31.6,16.0,29.97,West,281,1.0,1.0,52,0.00,,,0.00,Wunderground v.1.15,2013-01-24 04:15:00,
2013-01-23 21:20:00,31.9,14.4,29.96,West,281,1.0,1.0,48,0.00,,,0.00,Wunderground v.1.15,2013-01-24 04:20:00,
2013-01-23 21:25:00,32.4,13.9,29.96,West,281,1.0,1.0,46,0.00,,,0.00,Wunderground v.1.15,2013-01-24 04:25:00,
2013-01-23 21:30:00,32.8,14.8,29.96,West,281,1.0,1.0,47,0.00,,,0.00,Wunderground v.1.15,2013-01-24 04:30:00,
2013-01-23 21:35:00,33.2,15.1,29.95,West,281,0.0,1.0,47,0.00,,,0.00,Wunderground v.1.15,2013-01-24 04:35:00,
2013-01-23 21:40:00,33.5,14.4,29.95,West,281,0.0,0.0,45,0.00,,,0.00,Wunderground v.1.15,2013-01-24 04:40:00,
2013-01-23 21:45:00,33.8,14.7,29.95,West,281,0.0,0.0,45,0.00,,,0.00,Wunderground v.1.15,2013-01-24 04:45:00,
2013-01-23 21:55:00,34.0,14.3,29.93,West,281,0.0,0.0,44,0.00,,,0.00,Wunderground v.1.15,2013-01-24 04:55:00,
2013-01-23 22:00:00,34.3,14.1,29.93,West,281,0.0,0.0,43,0.00,,,0.00,Wunderground v.1.15,2013-01-24 05:00:00,
2013-01-23 22:05:00,34.4,14.2,29.93,West,281,0.0,0.0,43,0.00,,,0.00,Wunderground v.1.15,2013-01-24 05:05:00,
2013-01-23 22:15:00,34.4,15.2,29.93,West,281,0.0,0.0,45,0.00,,,0.00,Wunderground v.1.15,2013-01-24 05:15:00,
2013-01-23 22:25:00,34.3,15.6,29.92,West,281,0.0,1.0,46,0.00,,,0.00,Wunderground v.1.15,2013-01-24 05:25:00,
2013-01-23 22:30:00,34.3,15.6,29.92,West,281,0.0,0.0,46,0.00,,,0.00,Wunderground v.1.15,2013-01-24 05:30:00,
2013-01-23 22:40:00,34.3,16.1,29.92,West,281,0.0,2.0,47,0.00,,,0.00,Wunderground v.1.15,2013-01-24 05:40:00,
2013-01-23 22:45:00,34.3,16.6,29.92,WNW,284,1.0,3.0,48,0.00,,,0.00,Wunderground v.1.15,2013-01-24 05:45:00,
2013-01-23 22:50:00,34.3,16.6,29.90,WNW,284,1.0,1.0,48,0.00,,,0.00,Wunderground v.1.15,2013-01-24 05:50:00,
2013-01-23 23:00:00,34.1,15.9,29.90,WNW,284,0.0,0.0,47,0.00,,,0.00,Wunderground v.1.15,2013-01-24 06:00:00,
2013-01-23 23:05:00,34.1,15.9,29.90,WNW,284,0.0,1.0,47,0.00,,,0.00,Wunderground v.1.15,2013-01-24 06:05:00,
2013-01-23 23:15:00,34.0,16.3,29.90,WNW,284,0.0,1.0,48,0.00,,,0.00,Wunderground v.1.15,2013-01-24 06:15:00,
2013-01-23 23:20:00,33.8,15.7,29.90,WNW,284,0.0,1.0,47,0.00,,,0.00,Wunderground v.1.15,2013-01-24 06:20:00,
2013-01-23 23:30:00,33.8,16.2,29.90,WNW,284,0.0,1.0,48,0.00,,,0.00,Wunderground v.1.15,2013-01-24 06:30:00,
2013-01-23 23:35:00,33.8,15.7,29.90,WNW,291,1.0,3.0,47,0.00,,,0.00,Wunderground v.1.15,2013-01-24 06:35:00,
2013-01-23 23:40:00,34.0,16.3,29.90,WNW,291,1.0,1.0,48,0.00,,,0.00,Wunderground v.1.15,2013-01-24 06:40:00,
2013-01-23 23:45:00,34.1,15.9,29.90,WNW,291,1.0,1.0,47,0.00,,,0.00,Wunderground v.1.15,2013-01-24 06:45:00,
2013-01-23 23:50:00,34.4,16.2,29.91,WNW,291,1.0,1.0,47,0.00,,,0.00,Wunderground v.1.15,2013-01-24 06:50:00,
2013-01-23 23:55:00,34.4,16.7,29.91,West,275,0.0,1.0,48,0.00,,,0.00,Wunderground v.1.15,2013-01-24 06:55:00,